sensor_id;sensor_type;location;lat;lon;timestamp;P1;durP1;ratioP1;P2;durP2;ratioP2
13590;SDS011;6866;50.778;7.206;2022-07-09T00:01:33;6.55;;;3.65;;
13590;SDS011;6866;50.778;7.206;2022-07-09T00:03:58;7.40;;;3.83;;
13590;SDS011;6866;50.778;7.206;2022-07-09T00:06:24;7.10;;;3.83;;
13590;SDS011;6866;50.778;7.206;2022-07-09T00:08:49;9.93;;;4.00;;
13590;SDS011;6866;50.778;7.206;2022-07-09T00:11:15;7.82;;;3.45;;
13590;SDS011;6866;50.778;7.206;2022-07-09T00:13:40;7.00;;;3.88;;
13590;SDS011;6866;50.778;7.206;2022-07-09T00:16:06;9.10;;;4.05;;
13590;SDS011;6866;50.778;7.206;2022-07-09T00:18:32;8.23;;;4.03;;
13590;SDS011;6866;50.778;7.206;2022-07-09T00:20:57;7.75;;;3.90;;
13590;SDS011;6866;50.778;7.206;2022-07-09T00:23:23;6.03;;;3.72;;
13590;SDS011;6866;50.778;7.206;2022-07-09T00:25:48;10.40;;;4.40;;
13590;SDS011;6866;50.778;7.206;2022-07-09T00:28:14;6.88;;;3.85;;
13590;SDS011;6866;50.778;7.206;2022-07-09T00:30:39;8.55;;;3.75;;
13590;SDS011;6866;50.778;7.206;2022-07-09T00:33:05;7.93;;;3.97;;
13590;SDS011;6866;50.778;7.206;2022-07-09T00:35:30;6.45;;;3.70;;
13590;SDS011;6866;50.778;7.206;2022-07-09T00:37:56;6.07;;;3.50;;
13590;SDS011;6866;50.778;7.206;2022-07-09T00:40:22;7.32;;;3.70;;
13590;SDS011;6866;50.778;7.206;2022-07-09T00:42:47;8.27;;;3.85;;
13590;SDS011;6866;50.778;7.206;2022-07-09T00:45:13;8.95;;;4.32;;
13590;SDS011;6866;50.778;7.206;2022-07-09T00:47:38;7.00;;;3.42;;
13590;SDS011;6866;50.778;7.206;2022-07-09T00:50:04;8.40;;;3.80;;
13590;SDS011;6866;50.778;7.206;2022-07-09T00:52:30;6.82;;;3.95;;
13590;SDS011;6866;50.778;7.206;2022-07-09T00:54:56;7.97;;;3.50;;
13590;SDS011;6866;50.778;7.206;2022-07-09T00:57:25;5.35;;;3.60;;
13590;SDS011;6866;50.778;7.206;2022-07-09T00:59:50;8.32;;;3.90;;
13590;SDS011;6866;50.778;7.206;2022-07-09T01:04:52;9.07;;;4.30;;
13590;SDS011;6866;50.778;7.206;2022-07-09T01:07:17;7.57;;;4.13;;
13590;SDS011;6866;50.778;7.206;2022-07-09T01:09:43;9.18;;;4.35;;
13590;SDS011;6866;50.778;7.206;2022-07-09T01:12:09;7.55;;;3.72;;
13590;SDS011;6866;50.778;7.206;2022-07-09T01:14:34;7.35;;;4.32;;
13590;SDS011;6866;50.778;7.206;2022-07-09T01:17:01;6.60;;;4.00;;
13590;SDS011;6866;50.778;7.206;2022-07-09T01:19:29;8.05;;;4.30;;
13590;SDS011;6866;50.778;7.206;2022-07-09T01:21:55;7.45;;;4.10;;
13590;SDS011;6866;50.778;7.206;2022-07-09T01:24:21;7.05;;;4.00;;
13590;SDS011;6866;50.778;7.206;2022-07-09T01:26:48;8.25;;;4.00;;
13590;SDS011;6866;50.778;7.206;2022-07-09T01:29:14;7.40;;;4.40;;
13590;SDS011;6866;50.778;7.206;2022-07-09T01:31:39;7.13;;;3.88;;
13590;SDS011;6866;50.778;7.206;2022-07-09T01:34:05;8.27;;;4.32;;
13590;SDS011;6866;50.778;7.206;2022-07-09T01:36:31;6.72;;;4.00;;
13590;SDS011;6866;50.778;7.206;2022-07-09T01:38:57;6.07;;;4.00;;
13590;SDS011;6866;50.778;7.206;2022-07-09T01:41:23;9.90;;;4.30;;
13590;SDS011;6866;50.778;7.206;2022-07-09T01:43:48;7.25;;;4.55;;
13590;SDS011;6866;50.778;7.206;2022-07-09T01:46:14;7.60;;;4.35;;
13590;SDS011;6866;50.778;7.206;2022-07-09T01:48:39;8.23;;;4.20;;
13590;SDS011;6866;50.778;7.206;2022-07-09T01:51:07;7.07;;;4.28;;
13590;SDS011;6866;50.778;7.206;2022-07-09T01:53:33;8.20;;;4.50;;
13590;SDS011;6866;50.778;7.206;2022-07-09T01:56:03;8.13;;;4.80;;
13590;SDS011;6866;50.778;7.206;2022-07-09T01:58:30;6.90;;;4.30;;
13590;SDS011;6866;50.778;7.206;2022-07-09T02:00:55;6.72;;;3.92;;
13590;SDS011;6866;50.778;7.206;2022-07-09T02:03:21;8.48;;;4.10;;
13590;SDS011;6866;50.778;7.206;2022-07-09T02:05:47;7.13;;;3.80;;
13590;SDS011;6866;50.778;7.206;2022-07-09T02:08:13;8.63;;;3.92;;
13590;SDS011;6866;50.778;7.206;2022-07-09T02:10:39;8.68;;;4.03;;
13590;SDS011;6866;50.778;7.206;2022-07-09T02:13:04;6.00;;;4.10;;
13590;SDS011;6866;50.778;7.206;2022-07-09T02:15:30;7.82;;;4.10;;
13590;SDS011;6866;50.778;7.206;2022-07-09T02:17:56;8.43;;;3.90;;
13590;SDS011;6866;50.778;7.206;2022-07-09T02:20:22;8.60;;;4.22;;
13590;SDS011;6866;50.778;7.206;2022-07-09T02:22:47;9.00;;;3.97;;
13590;SDS011;6866;50.778;7.206;2022-07-09T02:25:13;9.02;;;3.72;;
13590;SDS011;6866;50.778;7.206;2022-07-09T02:27:38;6.35;;;3.72;;
13590;SDS011;6866;50.778;7.206;2022-07-09T02:30:04;9.27;;;4.00;;
13590;SDS011;6866;50.778;7.206;2022-07-09T02:32:31;7.35;;;4.25;;
13590;SDS011;6866;50.778;7.206;2022-07-09T02:34:56;8.02;;;3.75;;
13590;SDS011;6866;50.778;7.206;2022-07-09T02:37:22;8.43;;;4.03;;
13590;SDS011;6866;50.778;7.206;2022-07-09T02:39:47;9.02;;;4.10;;
13590;SDS011;6866;50.778;7.206;2022-07-09T02:42:13;11.55;;;3.85;;
13590;SDS011;6866;50.778;7.206;2022-07-09T02:44:38;9.10;;;4.03;;
13590;SDS011;6866;50.778;7.206;2022-07-09T02:47:05;7.88;;;5.05;;
13590;SDS011;6866;50.778;7.206;2022-07-09T02:49:30;8.82;;;3.85;;
13590;SDS011;6866;50.778;7.206;2022-07-09T02:51:56;7.20;;;4.15;;
13590;SDS011;6866;50.778;7.206;2022-07-09T02:54:24;7.78;;;3.83;;
13590;SDS011;6866;50.778;7.206;2022-07-09T02:56:49;9.20;;;4.28;;
13590;SDS011;6866;50.778;7.206;2022-07-09T02:59:15;6.82;;;3.97;;
13590;SDS011;6866;50.778;7.206;2022-07-09T03:01:40;6.13;;;4.10;;
13590;SDS011;6866;50.778;7.206;2022-07-09T03:04:06;7.65;;;3.75;;
13590;SDS011;6866;50.778;7.206;2022-07-09T03:06:31;6.72;;;4.20;;
13590;SDS011;6866;50.778;7.206;2022-07-09T03:08:57;8.05;;;4.05;;
13590;SDS011;6866;50.778;7.206;2022-07-09T03:11:22;7.70;;;4.10;;
13590;SDS011;6866;50.778;7.206;2022-07-09T03:13:48;7.95;;;4.25;;
13590;SDS011;6866;50.778;7.206;2022-07-09T03:16:13;11.10;;;4.25;;
13590;SDS011;6866;50.778;7.206;2022-07-09T03:18:39;7.43;;;4.40;;
13590;SDS011;6866;50.778;7.206;2022-07-09T03:21:05;11.13;;;4.72;;
13590;SDS011;6866;50.778;7.206;2022-07-09T03:23:30;9.25;;;4.40;;
13590;SDS011;6866;50.778;7.206;2022-07-09T03:25:56;7.30;;;4.28;;
13590;SDS011;6866;50.778;7.206;2022-07-09T03:28:22;9.70;;;4.05;;
13590;SDS011;6866;50.778;7.206;2022-07-09T03:30:48;7.50;;;3.97;;
13590;SDS011;6866;50.778;7.206;2022-07-09T03:33:13;6.03;;;3.95;;
13590;SDS011;6866;50.778;7.206;2022-07-09T03:35:39;6.90;;;4.00;;
13590;SDS011;6866;50.778;7.206;2022-07-09T03:38:04;8.00;;;4.18;;
13590;SDS011;6866;50.778;7.206;2022-07-09T03:40:30;7.47;;;3.95;;
13590;SDS011;6866;50.778;7.206;2022-07-09T03:42:56;6.78;;;3.75;;
13590;SDS011;6866;50.778;7.206;2022-07-09T03:45:21;12.85;;;4.40;;
13590;SDS011;6866;50.778;7.206;2022-07-09T03:47:47;10.15;;;4.10;;
13590;SDS011;6866;50.778;7.206;2022-07-09T03:50:13;8.07;;;3.63;;
13590;SDS011;6866;50.778;7.206;2022-07-09T03:52:39;10.57;;;4.80;;
13590;SDS011;6866;50.778;7.206;2022-07-09T03:55:05;9.93;;;4.40;;
13590;SDS011;6866;50.778;7.206;2022-07-09T03:57:30;8.13;;;4.32;;
13590;SDS011;6866;50.778;7.206;2022-07-09T03:59:56;7.43;;;4.40;;
13590;SDS011;6866;50.778;7.206;2022-07-09T04:02:21;7.03;;;4.07;;
13590;SDS011;6866;50.778;7.206;2022-07-09T04:04:47;9.25;;;4.20;;
13590;SDS011;6866;50.778;7.206;2022-07-09T04:07:13;9.73;;;4.38;;
13590;SDS011;6866;50.778;7.206;2022-07-09T04:09:39;7.82;;;4.40;;
13590;SDS011;6866;50.778;7.206;2022-07-09T04:12:05;9.82;;;4.40;;
13590;SDS011;6866;50.778;7.206;2022-07-09T04:14:31;10.20;;;4.68;;
13590;SDS011;6866;50.778;7.206;2022-07-09T04:16:57;9.73;;;4.32;;
13590;SDS011;6866;50.778;7.206;2022-07-09T04:19:22;9.38;;;4.35;;
13590;SDS011;6866;50.778;7.206;2022-07-09T04:21:48;8.13;;;4.10;;
13590;SDS011;6866;50.778;7.206;2022-07-09T04:24:13;7.40;;;4.18;;
13590;SDS011;6866;50.778;7.206;2022-07-09T04:26:40;9.30;;;4.25;;
13590;SDS011;6866;50.778;7.206;2022-07-09T04:29:06;13.45;;;4.25;;
13590;SDS011;6866;50.778;7.206;2022-07-09T04:31:32;8.00;;;3.90;;
13590;SDS011;6866;50.778;7.206;2022-07-09T04:33:57;6.70;;;3.80;;
13590;SDS011;6866;50.778;7.206;2022-07-09T04:36:23;10.50;;;4.25;;
13590;SDS011;6866;50.778;7.206;2022-07-09T04:38:49;8.07;;;3.90;;
13590;SDS011;6866;50.778;7.206;2022-07-09T04:41:14;9.15;;;4.10;;
13590;SDS011;6866;50.778;7.206;2022-07-09T04:43:40;7.35;;;3.83;;
13590;SDS011;6866;50.778;7.206;2022-07-09T04:46:05;10.40;;;4.18;;
13590;SDS011;6866;50.778;7.206;2022-07-09T04:48:31;7.68;;;3.95;;
13590;SDS011;6866;50.778;7.206;2022-07-09T04:50:56;7.15;;;4.35;;
13590;SDS011;6866;50.778;7.206;2022-07-09T04:53:22;7.75;;;4.00;;
13590;SDS011;6866;50.778;7.206;2022-07-09T04:55:47;10.98;;;4.05;;
13590;SDS011;6866;50.778;7.206;2022-07-09T04:58:13;11.27;;;3.97;;
13590;SDS011;6866;50.778;7.206;2022-07-09T05:00:39;18.08;;;4.30;;
13590;SDS011;6866;50.778;7.206;2022-07-09T05:03:04;13.43;;;4.47;;
13590;SDS011;6866;50.778;7.206;2022-07-09T05:05:30;13.40;;;3.80;;
13590;SDS011;6866;50.778;7.206;2022-07-09T05:07:56;12.55;;;4.03;;
13590;SDS011;6866;50.778;7.206;2022-07-09T05:10:21;9.45;;;3.92;;
13590;SDS011;6866;50.778;7.206;2022-07-09T05:12:47;12.98;;;4.65;;
13590;SDS011;6866;50.778;7.206;2022-07-09T05:15:13;18.65;;;4.85;;
13590;SDS011;6866;50.778;7.206;2022-07-09T05:17:39;10.30;;;4.35;;
13590;SDS011;6866;50.778;7.206;2022-07-09T05:20:05;11.05;;;4.10;;
13590;SDS011;6866;50.778;7.206;2022-07-09T05:22:32;8.23;;;3.97;;
13590;SDS011;6866;50.778;7.206;2022-07-09T05:24:58;10.73;;;4.20;;
13590;SDS011;6866;50.778;7.206;2022-07-09T05:27:25;9.05;;;4.57;;
13590;SDS011;6866;50.778;7.206;2022-07-09T05:29:51;9.02;;;4.43;;
13590;SDS011;6866;50.778;7.206;2022-07-09T05:32:16;11.50;;;4.60;;
13590;SDS011;6866;50.778;7.206;2022-07-09T05:34:42;7.53;;;4.60;;
13590;SDS011;6866;50.778;7.206;2022-07-09T05:37:08;9.35;;;4.43;;
13590;SDS011;6866;50.778;7.206;2022-07-09T05:39:34;12.18;;;4.55;;
13590;SDS011;6866;50.778;7.206;2022-07-09T05:41:59;9.52;;;4.22;;
13590;SDS011;6866;50.778;7.206;2022-07-09T05:44:25;8.20;;;4.47;;
13590;SDS011;6866;50.778;7.206;2022-07-09T05:46:50;10.70;;;4.30;;
13590;SDS011;6866;50.778;7.206;2022-07-09T05:49:16;7.78;;;4.50;;
13590;SDS011;6866;50.778;7.206;2022-07-09T05:51:42;8.07;;;4.70;;
13590;SDS011;6866;50.778;7.206;2022-07-09T05:54:07;7.38;;;4.22;;
13590;SDS011;6866;50.778;7.206;2022-07-09T05:56:33;11.75;;;3.97;;
13590;SDS011;6866;50.778;7.206;2022-07-09T05:58:59;7.35;;;3.53;;
13590;SDS011;6866;50.778;7.206;2022-07-09T06:01:25;8.63;;;3.60;;
13590;SDS011;6866;50.778;7.206;2022-07-09T06:03:50;8.15;;;3.30;;
13590;SDS011;6866;50.778;7.206;2022-07-09T06:06:16;10.18;;;4.15;;
13590;SDS011;6866;50.778;7.206;2022-07-09T06:08:41;7.63;;;3.08;;
13590;SDS011;6866;50.778;7.206;2022-07-09T06:11:07;9.98;;;3.40;;
13590;SDS011;6866;50.778;7.206;2022-07-09T06:13:32;8.77;;;3.40;;
13590;SDS011;6866;50.778;7.206;2022-07-09T06:15:58;8.32;;;3.42;;
13590;SDS011;6866;50.778;7.206;2022-07-09T06:18:23;9.85;;;4.00;;
13590;SDS011;6866;50.778;7.206;2022-07-09T06:20:49;10.77;;;3.45;;
13590;SDS011;6866;50.778;7.206;2022-07-09T06:23:14;9.43;;;3.05;;
13590;SDS011;6866;50.778;7.206;2022-07-09T06:25:40;6.53;;;3.30;;
13590;SDS011;6866;50.778;7.206;2022-07-09T06:28:06;11.02;;;4.03;;
13590;SDS011;6866;50.778;7.206;2022-07-09T06:30:32;9.18;;;3.70;;
13590;SDS011;6866;50.778;7.206;2022-07-09T06:32:59;6.53;;;3.53;;
13590;SDS011;6866;50.778;7.206;2022-07-09T06:35:25;12.10;;;3.92;;
13590;SDS011;6866;50.778;7.206;2022-07-09T06:37:50;9.95;;;5.28;;
13590;SDS011;6866;50.778;7.206;2022-07-09T06:40:16;12.38;;;4.05;;
13590;SDS011;6866;50.778;7.206;2022-07-09T06:42:41;14.07;;;5.10;;
13590;SDS011;6866;50.778;7.206;2022-07-09T06:45:07;10.18;;;5.30;;
13590;SDS011;6866;50.778;7.206;2022-07-09T06:47:34;15.10;;;5.80;;
13590;SDS011;6866;50.778;7.206;2022-07-09T06:50:00;12.73;;;5.68;;
13590;SDS011;6866;50.778;7.206;2022-07-09T06:52:25;13.85;;;6.00;;
13590;SDS011;6866;50.778;7.206;2022-07-09T06:54:51;10.05;;;4.82;;
13590;SDS011;6866;50.778;7.206;2022-07-09T06:57:16;13.00;;;5.45;;
13590;SDS011;6866;50.778;7.206;2022-07-09T06:59:42;13.88;;;6.25;;
13590;SDS011;6866;50.778;7.206;2022-07-09T07:02:12;11.02;;;6.57;;
13590;SDS011;6866;50.778;7.206;2022-07-09T07:04:38;12.63;;;5.80;;
13590;SDS011;6866;50.778;7.206;2022-07-09T07:07:03;13.20;;;5.55;;
13590;SDS011;6866;50.778;7.206;2022-07-09T07:09:30;12.45;;;5.45;;
13590;SDS011;6866;50.778;7.206;2022-07-09T07:11:56;13.13;;;5.03;;
13590;SDS011;6866;50.778;7.206;2022-07-09T07:14:21;11.23;;;5.35;;
13590;SDS011;6866;50.778;7.206;2022-07-09T07:16:47;9.30;;;4.50;;
13590;SDS011;6866;50.778;7.206;2022-07-09T07:19:13;8.52;;;4.30;;
13590;SDS011;6866;50.778;7.206;2022-07-09T07:21:38;12.48;;;4.65;;
13590;SDS011;6866;50.778;7.206;2022-07-09T07:24:05;12.23;;;4.13;;
13590;SDS011;6866;50.778;7.206;2022-07-09T07:26:31;8.45;;;4.70;;
13590;SDS011;6866;50.778;7.206;2022-07-09T07:28:58;11.82;;;4.40;;
13590;SDS011;6866;50.778;7.206;2022-07-09T07:31:23;8.55;;;4.30;;
13590;SDS011;6866;50.778;7.206;2022-07-09T07:33:49;11.13;;;4.38;;
13590;SDS011;6866;50.778;7.206;2022-07-09T07:36:15;11.32;;;4.55;;
13590;SDS011;6866;50.778;7.206;2022-07-09T07:38:41;12.93;;;5.05;;
13590;SDS011;6866;50.778;7.206;2022-07-09T07:41:07;10.55;;;5.10;;
13590;SDS011;6866;50.778;7.206;2022-07-09T07:43:32;13.48;;;4.80;;
13590;SDS011;6866;50.778;7.206;2022-07-09T07:45:58;10.48;;;4.68;;
13590;SDS011;6866;50.778;7.206;2022-07-09T07:48:23;9.55;;;4.28;;
13590;SDS011;6866;50.778;7.206;2022-07-09T07:50:52;7.32;;;3.25;;
13590;SDS011;6866;50.778;7.206;2022-07-09T07:53:18;9.98;;;3.35;;
13590;SDS011;6866;50.778;7.206;2022-07-09T07:55:43;9.73;;;3.42;;
13590;SDS011;6866;50.778;7.206;2022-07-09T07:58:09;7.82;;;3.63;;
13590;SDS011;6866;50.778;7.206;2022-07-09T08:00:34;7.95;;;3.60;;
13590;SDS011;6866;50.778;7.206;2022-07-09T08:03:02;8.15;;;3.03;;
13590;SDS011;6866;50.778;7.206;2022-07-09T08:05:28;6.88;;;2.95;;
13590;SDS011;6866;50.778;7.206;2022-07-09T08:07:54;6.63;;;2.50;;
13590;SDS011;6866;50.778;7.206;2022-07-09T08:10:19;6.88;;;3.30;;
13590;SDS011;6866;50.778;7.206;2022-07-09T08:12:45;6.82;;;3.20;;
13590;SDS011;6866;50.778;7.206;2022-07-09T08:15:11;7.65;;;2.97;;
13590;SDS011;6866;50.778;7.206;2022-07-09T08:17:36;7.70;;;3.22;;
13590;SDS011;6866;50.778;7.206;2022-07-09T08:20:03;6.95;;;3.05;;
13590;SDS011;6866;50.778;7.206;2022-07-09T08:22:29;6.30;;;2.80;;
13590;SDS011;6866;50.778;7.206;2022-07-09T08:24:55;6.15;;;2.15;;
13590;SDS011;6866;50.778;7.206;2022-07-09T08:27:20;6.40;;;2.50;;
13590;SDS011;6866;50.778;7.206;2022-07-09T08:29:46;5.20;;;2.55;;
13590;SDS011;6866;50.778;7.206;2022-07-09T08:32:14;6.63;;;2.10;;
13590;SDS011;6866;50.778;7.206;2022-07-09T08:34:39;6.97;;;2.38;;
13590;SDS011;6866;50.778;7.206;2022-07-09T08:37:05;4.90;;;2.17;;
13590;SDS011;6866;50.778;7.206;2022-07-09T08:39:30;4.68;;;2.00;;
13590;SDS011;6866;50.778;7.206;2022-07-09T08:41:56;6.40;;;2.47;;
13590;SDS011;6866;50.778;7.206;2022-07-09T08:44:23;6.20;;;2.45;;
13590;SDS011;6866;50.778;7.206;2022-07-09T08:46:53;5.35;;;2.30;;
13590;SDS011;6866;50.778;7.206;2022-07-09T08:49:19;5.05;;;2.28;;
13590;SDS011;6866;50.778;7.206;2022-07-09T08:51:47;6.43;;;2.45;;
13590;SDS011;6866;50.778;7.206;2022-07-09T08:54:15;5.55;;;2.35;;
13590;SDS011;6866;50.778;7.206;2022-07-09T08:56:41;4.22;;;2.17;;
13590;SDS011;6866;50.778;7.206;2022-07-09T08:59:07;4.22;;;1.92;;
13590;SDS011;6866;50.778;7.206;2022-07-09T09:01:32;5.20;;;1.95;;
13590;SDS011;6866;50.778;7.206;2022-07-09T09:03:58;4.90;;;2.00;;
13590;SDS011;6866;50.778;7.206;2022-07-09T09:06:24;5.50;;;2.00;;
13590;SDS011;6866;50.778;7.206;2022-07-09T09:08:52;5.20;;;2.20;;
13590;SDS011;6866;50.778;7.206;2022-07-09T09:11:23;6.10;;;2.30;;
13590;SDS011;6866;50.778;7.206;2022-07-09T09:13:50;5.20;;;2.20;;
13590;SDS011;6866;50.778;7.206;2022-07-09T09:16:17;5.15;;;2.03;;
13590;SDS011;6866;50.778;7.206;2022-07-09T09:18:47;6.85;;;2.15;;
13590;SDS011;6866;50.778;7.206;2022-07-09T09:21:15;5.78;;;2.58;;
13590;SDS011;6866;50.778;7.206;2022-07-09T09:23:44;4.72;;;2.15;;
13590;SDS011;6866;50.778;7.206;2022-07-09T09:26:12;7.32;;;2.58;;
13590;SDS011;6866;50.778;7.206;2022-07-09T09:28:52;5.38;;;2.30;;
13590;SDS011;6866;50.778;7.206;2022-07-09T09:31:18;6.55;;;2.67;;
13590;SDS011;6866;50.778;7.206;2022-07-09T09:33:45;8.02;;;2.67;;
13590;SDS011;6866;50.778;7.206;2022-07-09T09:36:11;6.05;;;2.60;;
13590;SDS011;6866;50.778;7.206;2022-07-09T09:38:36;10.00;;;3.03;;
13590;SDS011;6866;50.778;7.206;2022-07-09T09:41:02;5.93;;;2.78;;
13590;SDS011;6866;50.778;7.206;2022-07-09T09:43:27;8.07;;;3.08;;
13590;SDS011;6866;50.778;7.206;2022-07-09T09:45:55;6.07;;;2.75;;
13590;SDS011;6866;50.778;7.206;2022-07-09T09:48:23;4.47;;;2.45;;
13590;SDS011;6866;50.778;7.206;2022-07-09T09:50:49;5.53;;;2.92;;
13590;SDS011;6866;50.778;7.206;2022-07-09T09:53:16;5.70;;;2.47;;
13590;SDS011;6866;50.778;7.206;2022-07-09T09:55:43;7.38;;;2.90;;
13590;SDS011;6866;50.778;7.206;2022-07-09T09:58:11;6.65;;;3.25;;
13590;SDS011;6866;50.778;7.206;2022-07-09T10:00:37;5.22;;;2.45;;
13590;SDS011;6866;50.778;7.206;2022-07-09T10:03:03;5.38;;;2.50;;
13590;SDS011;6866;50.778;7.206;2022-07-09T10:05:29;5.60;;;2.30;;
13590;SDS011;6866;50.778;7.206;2022-07-09T10:07:54;6.47;;;2.35;;
13590;SDS011;6866;50.778;7.206;2022-07-09T10:10:20;3.97;;;2.10;;
13590;SDS011;6866;50.778;7.206;2022-07-09T10:12:46;4.78;;;1.90;;
13590;SDS011;6866;50.778;7.206;2022-07-09T10:17:48;4.15;;;1.90;;
13590;SDS011;6866;50.778;7.206;2022-07-09T10:20:13;3.42;;;1.60;;
13590;SDS011;6866;50.778;7.206;2022-07-09T10:22:40;3.50;;;1.50;;
13590;SDS011;6866;50.778;7.206;2022-07-09T10:27:47;5.78;;;1.50;;
13590;SDS011;6866;50.778;7.206;2022-07-09T10:33:53;3.88;;;1.73;;
13590;SDS011;6866;50.778;7.206;2022-07-09T10:35:49;7.32;;;2.10;;
13590;SDS011;6866;50.778;7.206;2022-07-09T10:38:16;3.30;;;1.52;;
13590;SDS011;6866;50.778;7.206;2022-07-09T10:40:44;5.07;;;1.40;;
13590;SDS011;6866;50.778;7.206;2022-07-09T10:43:11;5.55;;;1.70;;
13590;SDS011;6866;50.778;7.206;2022-07-09T10:45:39;3.25;;;1.13;;
13590;SDS011;6866;50.778;7.206;2022-07-09T10:48:07;3.70;;;1.40;;
13590;SDS011;6866;50.778;7.206;2022-07-09T10:50:38;2.45;;;1.20;;
13590;SDS011;6866;50.778;7.206;2022-07-09T10:55:31;2.80;;;1.30;;
13590;SDS011;6866;50.778;7.206;2022-07-09T10:57:57;4.93;;;1.40;;
13590;SDS011;6866;50.778;7.206;2022-07-09T11:00:23;5.50;;;1.55;;
13590;SDS011;6866;50.778;7.206;2022-07-09T11:02:54;5.18;;;1.40;;
13590;SDS011;6866;50.778;7.206;2022-07-09T11:05:19;3.72;;;1.30;;
13590;SDS011;6866;50.778;7.206;2022-07-09T11:07:55;2.47;;;1.20;;
13590;SDS011;6866;50.778;7.206;2022-07-09T11:10:22;5.38;;;1.40;;
13590;SDS011;6866;50.778;7.206;2022-07-09T11:12:47;3.25;;;1.40;;
13590;SDS011;6866;50.778;7.206;2022-07-09T11:15:17;3.00;;;1.20;;
13590;SDS011;6866;50.778;7.206;2022-07-09T11:17:43;2.43;;;1.13;;
13590;SDS011;6866;50.778;7.206;2022-07-09T11:20:12;6.82;;;1.40;;
13590;SDS011;6866;50.778;7.206;2022-07-09T11:22:37;3.95;;;1.50;;
13590;SDS011;6866;50.778;7.206;2022-07-09T11:25:03;3.45;;;1.20;;
13590;SDS011;6866;50.778;7.206;2022-07-09T11:27:29;2.92;;;1.20;;
13590;SDS011;6866;50.778;7.206;2022-07-09T11:29:54;2.70;;;1.00;;
13590;SDS011;6866;50.778;7.206;2022-07-09T11:32:26;4.63;;;1.40;;
13590;SDS011;6866;50.778;7.206;2022-07-09T11:34:51;3.00;;;1.10;;
13590;SDS011;6866;50.778;7.206;2022-07-09T11:37:23;3.05;;;1.23;;
13590;SDS011;6866;50.778;7.206;2022-07-09T11:39:51;3.20;;;1.30;;
13590;SDS011;6866;50.778;7.206;2022-07-09T11:42:17;3.45;;;1.20;;
13590;SDS011;6866;50.778;7.206;2022-07-09T11:44:52;4.47;;;1.00;;
13590;SDS011;6866;50.778;7.206;2022-07-09T11:47:18;3.67;;;1.20;;
13590;SDS011;6866;50.778;7.206;2022-07-09T11:49:47;4.10;;;1.05;;
13590;SDS011;6866;50.778;7.206;2022-07-09T11:52:24;3.80;;;1.45;;
13590;SDS011;6866;50.778;7.206;2022-07-09T11:55:00;3.47;;;1.10;;
13590;SDS011;6866;50.778;7.206;2022-07-09T11:57:28;4.68;;;1.35;;
13590;SDS011;6866;50.778;7.206;2022-07-09T11:59:55;3.88;;;1.27;;
13590;SDS011;6866;50.778;7.206;2022-07-09T12:02:25;3.90;;;1.20;;
13590;SDS011;6866;50.778;7.206;2022-07-09T12:04:59;5.45;;;1.20;;
13590;SDS011;6866;50.778;7.206;2022-07-09T12:07:26;4.85;;;1.52;;
13590;SDS011;6866;50.778;7.206;2022-07-09T12:10:02;7.88;;;1.23;;
13590;SDS011;6866;50.778;7.206;2022-07-09T12:12:33;3.80;;;1.20;;
13590;SDS011;6866;50.778;7.206;2022-07-09T12:14:59;4.63;;;1.30;;
13590;SDS011;6866;50.778;7.206;2022-07-09T12:17:29;6.13;;;1.52;;
13590;SDS011;6866;50.778;7.206;2022-07-09T12:19:56;3.85;;;1.30;;
13590;SDS011;6866;50.778;7.206;2022-07-09T12:22:23;3.67;;;1.38;;
13590;SDS011;6866;50.778;7.206;2022-07-09T12:24:48;2.72;;;1.20;;
13590;SDS011;6866;50.778;7.206;2022-07-09T12:27:15;3.42;;;1.30;;
13590;SDS011;6866;50.778;7.206;2022-07-09T12:29:41;4.35;;;1.63;;
13590;SDS011;6866;50.778;7.206;2022-07-09T12:32:06;3.45;;;1.40;;
13590;SDS011;6866;50.778;7.206;2022-07-09T12:34:32;2.67;;;1.10;;
13590;SDS011;6866;50.778;7.206;2022-07-09T12:36:58;5.53;;;1.33;;
13590;SDS011;6866;50.778;7.206;2022-07-09T12:39:24;3.67;;;1.20;;
13590;SDS011;6866;50.778;7.206;2022-07-09T12:41:50;3.80;;;1.33;;
13590;SDS011;6866;50.778;7.206;2022-07-09T12:44:15;4.72;;;1.33;;
13590;SDS011;6866;50.778;7.206;2022-07-09T12:46:41;4.50;;;1.40;;
13590;SDS011;6866;50.778;7.206;2022-07-09T12:49:07;3.70;;;1.20;;
13590;SDS011;6866;50.778;7.206;2022-07-09T12:51:33;5.93;;;1.40;;
13590;SDS011;6866;50.778;7.206;2022-07-09T12:53:58;4.75;;;1.40;;
13590;SDS011;6866;50.778;7.206;2022-07-09T12:56:24;2.63;;;1.20;;
13590;SDS011;6866;50.778;7.206;2022-07-09T12:58:50;5.13;;;1.50;;
13590;SDS011;6866;50.778;7.206;2022-07-09T13:01:15;4.00;;;1.35;;
13590;SDS011;6866;50.778;7.206;2022-07-09T13:03:41;6.25;;;1.67;;
13590;SDS011;6866;50.778;7.206;2022-07-09T13:06:07;5.00;;;1.50;;
13590;SDS011;6866;50.778;7.206;2022-07-09T13:08:51;2.85;;;1.30;;
13590;SDS011;6866;50.778;7.206;2022-07-09T13:11:17;5.43;;;1.38;;
13590;SDS011;6866;50.778;7.206;2022-07-09T13:13:42;3.05;;;1.30;;
13590;SDS011;6866;50.778;7.206;2022-07-09T13:16:08;4.10;;;1.33;;
13590;SDS011;6866;50.778;7.206;2022-07-09T13:18:33;3.13;;;1.33;;
13590;SDS011;6866;50.778;7.206;2022-07-09T13:20:59;5.85;;;1.60;;
13590;SDS011;6866;50.778;7.206;2022-07-09T13:23:24;3.75;;;1.40;;
13590;SDS011;6866;50.778;7.206;2022-07-09T13:25:50;3.28;;;1.30;;
13590;SDS011;6866;50.778;7.206;2022-07-09T13:28:15;8.05;;;1.70;;
13590;SDS011;6866;50.778;7.206;2022-07-09T13:30:41;5.07;;;1.50;;
13590;SDS011;6866;50.778;7.206;2022-07-09T13:33:06;6.10;;;1.80;;
13590;SDS011;6866;50.778;7.206;2022-07-09T13:35:32;4.97;;;1.67;;
13590;SDS011;6866;50.778;7.206;2022-07-09T13:37:58;4.93;;;2.00;;
13590;SDS011;6866;50.778;7.206;2022-07-09T13:40:23;3.17;;;1.70;;
13590;SDS011;6866;50.778;7.206;2022-07-09T13:42:49;8.43;;;1.80;;
13590;SDS011;6866;50.778;7.206;2022-07-09T13:45:14;6.22;;;2.13;;
13590;SDS011;6866;50.778;7.206;2022-07-09T13:47:40;5.82;;;2.20;;
13590;SDS011;6866;50.778;7.206;2022-07-09T13:50:06;12.18;;;2.10;;
13590;SDS011;6866;50.778;7.206;2022-07-09T13:52:32;6.45;;;2.30;;
13590;SDS011;6866;50.778;7.206;2022-07-09T13:54:57;4.65;;;2.08;;
13590;SDS011;6866;50.778;7.206;2022-07-09T13:57:23;5.68;;;2.25;;
13590;SDS011;6866;50.778;7.206;2022-07-09T13:59:48;5.80;;;2.70;;
13590;SDS011;6866;50.778;7.206;2022-07-09T14:02:14;5.53;;;2.65;;
13590;SDS011;6866;50.778;7.206;2022-07-09T14:04:39;5.55;;;2.72;;
13590;SDS011;6866;50.778;7.206;2022-07-09T14:07:05;5.35;;;3.20;;
13590;SDS011;6866;50.778;7.206;2022-07-09T14:09:30;8.23;;;2.88;;
13590;SDS011;6866;50.778;7.206;2022-07-09T14:11:56;4.97;;;2.92;;
13590;SDS011;6866;50.778;7.206;2022-07-09T14:14:21;7.68;;;4.00;;
13590;SDS011;6866;50.778;7.206;2022-07-09T14:16:47;6.53;;;3.20;;
13590;SDS011;6866;50.778;7.206;2022-07-09T14:19:12;5.85;;;3.33;;
13590;SDS011;6866;50.778;7.206;2022-07-09T14:21:38;10.20;;;3.70;;
13590;SDS011;6866;50.778;7.206;2022-07-09T14:24:04;7.47;;;3.60;;
13590;SDS011;6866;50.778;7.206;2022-07-09T14:26:29;7.35;;;3.80;;
13590;SDS011;6866;50.778;7.206;2022-07-09T14:28:55;5.40;;;3.72;;
13590;SDS011;6866;50.778;7.206;2022-07-09T14:31:21;7.82;;;4.68;;
13590;SDS011;6866;50.778;7.206;2022-07-09T14:33:46;6.20;;;4.38;;
13590;SDS011;6866;50.778;7.206;2022-07-09T14:36:12;7.07;;;4.55;;
13590;SDS011;6866;50.778;7.206;2022-07-09T14:38:37;7.63;;;4.43;;
13590;SDS011;6866;50.778;7.206;2022-07-09T14:41:03;8.70;;;4.63;;
13590;SDS011;6866;50.778;7.206;2022-07-09T14:43:28;8.82;;;4.50;;
13590;SDS011;6866;50.778;7.206;2022-07-09T14:45:54;9.32;;;4.82;;
13590;SDS011;6866;50.778;7.206;2022-07-09T14:48:19;9.68;;;4.97;;
13590;SDS011;6866;50.778;7.206;2022-07-09T14:50:45;10.82;;;4.97;;
13590;SDS011;6866;50.778;7.206;2022-07-09T14:53:10;8.02;;;5.55;;
13590;SDS011;6866;50.778;7.206;2022-07-09T14:55:36;10.98;;;5.40;;
13590;SDS011;6866;50.778;7.206;2022-07-09T14:58:02;9.65;;;5.55;;
13590;SDS011;6866;50.778;7.206;2022-07-09T15:00:27;9.35;;;6.28;;
13590;SDS011;6866;50.778;7.206;2022-07-09T15:02:53;9.70;;;6.07;;
13590;SDS011;6866;50.778;7.206;2022-07-09T15:05:18;11.05;;;6.60;;
13590;SDS011;6866;50.778;7.206;2022-07-09T15:07:44;11.55;;;7.05;;